Time;durP1;ratioP1;P1;durP2;ratioP2;P2;SDS_P1;SDS_P2;PMS_P1;PMS_P2;Temp;Humidity;BMP_temperature;BMP_pressure;BME280_temperature;BME280_humidity;BME280_pressure;Samples;Min_cycle;Max_cycle;Signal;HPM_P1;HPM_P2
2022/09/06 00:01:37;;;;;;;3.65;3.17;;;22.50;61.30;;;;;;5046399;28;20734;-72
2022/09/06 00:04:04;;;;;;;3.60;3.00;;;22.50;61.30;;;;;;5030889;28;20080;-71
2022/09/06 00:06:30;;;;;;;4.07;3.30;;;22.50;61.30;;;;;;5050497;28;20476;-72
2022/09/06 00:08:57;;;;;;;3.78;3.20;;;22.50;61.30;;;;;;5051725;28;20048;-71
2022/09/06 00:11:24;;;;;;;4.50;3.50;;;22.50;61.20;;;;;;5051634;28;20053;-72
2022/09/06 00:13:52;;;;;;;6.00;3.55;;;22.50;61.20;;;;;;5050781;28;20135;-71
2022/09/06 00:16:21;;;;;;;3.40;3.10;;;22.50;61.20;;;;;;5051739;28;20120;-71
2022/09/06 00:18:48;;;;;;;4.95;3.08;;;22.70;61.30;;;;;;5051381;28;20045;-72
2022/09/06 00:21:16;;;;;;;4.57;3.30;;;22.40;61.10;;;;;;5051730;28;20053;-72
2022/09/06 00:23:43;;;;;;;3.40;3.10;;;22.40;61.10;;;;;;5067360;28;20053;-72
2022/09/06 00:26:10;;;;;;;4.88;3.35;;;22.50;61.20;;;;;;5051634;28;20136;-73
2022/09/06 00:28:37;;;;;;;4.18;3.15;;;22.40;61.10;;;;;;5051513;28;20053;-72
2022/09/06 00:31:12;;;;;;;5.40;3.47;;;22.50;61.10;;;;;;5050508;28;20116;-72
2022/09/06 00:33:38;;;;;;;;;;;22.40;61.00;;;;;;5050737;28;20099;-72
2022/09/06 00:36:05;;;;;;;4.18;3.50;;;22.40;61.00;;;;;;5051642;28;20000;-71
2022/09/06 00:38:32;;;;;;;4.20;3.40;;;22.40;61.30;;;;;;5051647;28;20553;-73
2022/09/06 00:40:59;;;;;;;3.85;3.25;;;22.40;61.10;;;;;;5050218;28;20136;-72
2022/09/06 00:43:26;;;;;;;3.20;2.90;;;22.40;61.10;;;;;;5050322;28;20549;-72
2022/09/06 00:45:53;;;;;;;3.67;3.28;;;22.40;61.10;;;;;;5051367;28;20120;-71
2022/09/06 00:48:21;;;;;;;3.65;2.72;;;22.40;61.10;;;;;;5051488;28;20045;-71
2022/09/06 00:50:48;;;;;;;4.05;3.25;;;22.40;61.00;;;;;;5049862;28;20053;-71
2022/09/06 00:53:15;;;;;;;3.40;3.10;;;22.30;61.00;;;;;;5050411;28;20069;-72
2022/09/06 00:55:41;;;;;;;4.55;3.33;;;22.40;61.00;;;;;;5051538;28;20063;-71
2022/09/06 00:58:08;;;;;;;4.72;3.30;;;22.50;61.10;;;;;;5051412;28;20127;-71
2022/09/06 01:00:35;;;;;;;3.95;3.33;;;22.30;61.00;;;;;;5051217;28;20136;-72
2022/09/06 01:03:02;;;;;;;3.42;3.13;;;22.30;60.90;;;;;;5051232;28;20151;-71
2022/09/06 01:05:33;;;;;;;3.70;3.17;;;22.30;61.00;;;;;;5049743;28;20115;-71
2022/09/06 01:08:05;;;;;;;4.05;3.30;;;22.30;60.90;;;;;;5050160;28;20059;-72
2022/09/06 01:10:42;;;;;;;3.58;3.10;;;22.30;60.90;;;;;;5050793;28;20136;-72
2022/09/06 01:13:17;;;;;;;5.15;3.15;;;22.30;60.90;;;;;;5052457;28;20140;-72
2022/09/06 01:15:49;;;;;;;3.35;2.83;;;22.30;60.90;;;;;;5053479;28;20065;-72
2022/09/06 01:18:23;;;;;;;3.55;3.10;;;22.40;61.00;;;;;;5053452;28;20463;-72
2022/09/06 01:20:58;;;;;;;3.65;3.30;;;22.30;60.90;;;;;;5054629;28;20049;-72
2022/09/06 01:23:55;;;;;;;4.40;3.20;;;22.30;60.90;;;;;;5054820;28;20132;-71
2022/09/06 01:26:45;;;;;;;3.35;3.05;;;22.20;60.80;;;;;;5053624;28;20540;-72
2022/09/06 01:29:13;;;;;;;3.45;2.97;;;22.20;60.80;;;;;;5053501;28;20132;-72
2022/09/06 01:31:42;;;;;;;4.70;3.00;;;22.20;60.90;;;;;;5070148;28;20504;-72
2022/09/06 01:34:19;;;;;;;3.10;2.80;;;22.20;60.90;;;;;;5053383;28;20056;-71
2022/09/06 01:36:48;;;;;;;5.15;3.33;;;22.30;60.90;;;;;;5053624;28;20557;-71
2022/09/06 01:39:20;;;;;;;3.33;3.03;;;22.20;60.90;;;;;;5053520;28;20136;-72
2022/09/06 01:41:47;;;;;;;3.20;2.90;;;22.20;60.90;;;;;;5053389;28;20135;-72
2022/09/06 01:44:15;;;;;;;3.50;2.95;;;22.20;60.90;;;;;;5053113;28;20080;-72
2022/09/06 01:46:44;;;;;;;3.85;3.05;;;22.20;60.90;;;;;;5053108;28;20140;-72
2022/09/06 01:49:20;;;;;;;4.07;3.10;;;22.20;60.90;;;;;;5049812;28;20144;-71
2022/09/06 01:51:55;;;;;;;3.17;2.72;;;22.20;60.80;;;;;;5033134;28;20573;-72
2022/09/06 01:54:28;;;;;;;3.72;3.05;;;22.20;60.80;;;;;;5033578;28;20166;-71
2022/09/06 01:57:01;;;;;;;2.92;2.63;;;22.20;60.80;;;;;;5033380;28;20068;-72
2022/09/06 02:02:24;;;;;;;3.88;3.10;;;22.60;61.10;;;;;;5089276;27;20852;-71
2022/09/06 02:04:52;;;;;;;3.47;3.05;;;22.10;60.60;;;;;;5085726;28;20083;-71
2022/09/06 02:07:21;;;;;;;3.55;2.80;;;22.10;60.80;;;;;;5068027;28;20136;-70
2022/09/06 02:09:50;;;;;;;3.22;2.78;;;22.10;60.80;;;;;;5067959;28;20135;-70
2022/09/06 02:12:17;;;;;;;3.53;2.90;;;22.10;60.80;;;;;;5067617;28;20080;-70
2022/09/06 02:14:45;;;;;;;3.13;2.83;;;22.10;60.80;;;;;;5068746;28;20127;-71
2022/09/06 02:17:13;;;;;;;5.50;3.08;;;22.10;60.80;;;;;;5068939;28;20483;-70
2022/09/06 02:19:44;;;;;;;4.47;3.30;;;22.10;60.80;;;;;;5067101;28;20474;-70
2022/09/06 02:22:11;;;;;;;3.13;2.83;;;22.10;60.80;;;;;;5067412;28;20144;-71
2022/09/06 02:24:39;;;;;;;4.40;3.13;;;22.10;60.90;;;;;;5067166;28;20136;-71
2022/09/06 02:27:06;;;;;;;3.15;2.85;;;22.10;60.90;;;;;;5068721;28;20456;-71
2022/09/06 02:29:33;;;;;;;4.10;3.05;;;22.10;60.90;;;;;;5067585;28;20140;-71
2022/09/06 02:32:01;;;;;;;4.88;3.00;;;22.20;60.90;;;;;;5067133;28;20136;-72
2022/09/06 02:34:28;;;;;;;4.57;3.28;;;22.20;60.90;;;;;;5067259;28;20163;-71
2022/09/06 02:36:56;;;;;;;4.30;3.15;;;22.10;60.90;;;;;;5068331;28;20355;-71
2022/09/06 02:39:23;;;;;;;3.60;3.30;;;22.10;60.90;;;;;;5067427;28;20136;-70
2022/09/06 02:41:50;;;;;;;3.67;3.03;;;22.10;60.90;;;;;;5068059;28;20071;-70
2022/09/06 02:44:17;;;;;;;3.38;3.08;;;22.10;60.90;;;;;;5067367;28;20560;-71
2022/09/06 02:46:44;;;;;;;3.33;3.00;;;22.10;60.90;;;;;;5067015;28;20049;-71
2022/09/06 02:49:10;;;;;;;4.32;3.08;;;22.20;61.00;;;;;;5066820;28;20124;-71
2022/09/06 02:51:38;;;;;;;3.22;2.92;;;22.10;60.90;;;;;;5066778;28;20569;-70
2022/09/06 02:54:06;;;;;;;3.50;3.20;;;22.00;60.90;;;;;;5068154;28;20052;-70
2022/09/06 02:56:35;;;;;;;3.55;2.90;;;22.00;60.90;;;;;;5066721;28;20223;-71
2022/09/06 02:59:02;;;;;;;3.80;2.97;;;22.00;60.90;;;;;;5068038;28;20056;-70
2022/09/06 03:01:29;;;;;;;3.30;3.00;;;22.00;60.90;;;;;;5067681;28;20071;-71
2022/09/06 03:03:56;;;;;;;3.67;3.03;;;22.20;61.00;;;;;;5067757;28;20131;-70
2022/09/06 03:06:22;;;;;;;2.95;2.65;;;22.00;60.90;;;;;;5067627;28;20411;-71
2022/09/06 03:08:50;;;;;;;3.60;3.00;;;22.00;60.90;;;;;;5066714;28;20084;-70
2022/09/06 03:11:18;;;;;;;3.15;2.85;;;22.00;60.90;;;;;;5066524;28;20410;-71
2022/09/06 03:13:45;;;;;;;3.15;2.85;;;22.00;60.90;;;;;;5053248;28;20053;-72
2022/09/06 03:16:12;;;;;;;3.08;2.78;;;22.00;60.90;;;;;;5053407;28;20140;-70
2022/09/06 03:18:38;;;;;;;3.50;3.20;;;22.00;60.90;;;;;;5053135;28;20081;-70
2022/09/06 03:21:05;;;;;;;3.22;2.92;;;22.00;60.90;;;;;;5052808;28;20127;-71
2022/09/06 03:23:33;;;;;;;3.92;3.25;;;22.00;60.90;;;;;;5069797;28;20059;-70
2022/09/06 03:25:59;;;;;;;3.28;2.97;;;22.00;60.90;;;;;;5053150;28;20148;-71
2022/09/06 03:28:27;;;;;;;3.67;3.17;;;22.00;60.90;;;;;;5052807;28;20132;-71
2022/09/06 03:30:54;;;;;;;5.30;2.92;;;22.00;60.90;;;;;;5052984;28;20136;-70
2022/09/06 03:33:21;;;;;;;3.42;2.80;;;21.90;60.90;;;;;;5052765;28;20136;-71
2022/09/06 03:35:49;;;;;;;3.67;3.20;;;22.00;61.50;;;;;;5052781;28;20053;-71
2022/09/06 03:38:15;;;;;;;3.50;3.00;;;22.00;61.00;;;;;;5052828;28;20137;-71
2022/09/06 03:40:44;;;;;;;3.50;3.20;;;22.00;61.00;;;;;;5069205;28;20140;-71
2022/09/06 03:43:11;;;;;;;3.22;2.92;;;21.90;60.90;;;;;;5052746;28;20165;-71
2022/09/06 03:45:39;;;;;;;4.47;3.40;;;21.90;60.90;;;;;;5052649;28;20545;-71
2022/09/06 03:48:06;;;;;;;3.40;3.10;;;21.80;60.90;;;;;;5052658;28;20482;-71
2022/09/06 03:50:32;;;;;;;3.40;3.10;;;22.00;61.00;;;;;;5053691;28;20513;-71
2022/09/06 03:52:59;;;;;;;3.90;3.00;;;21.90;60.90;;;;;;5052769;28;20052;-71
2022/09/06 03:55:26;;;;;;;3.50;3.00;;;21.90;60.90;;;;;;5053922;28;20052;-71
2022/09/06 03:57:52;;;;;;;3.58;3.03;;;21.90;60.90;;;;;;5053584;28;20140;-71
2022/09/06 04:00:19;;;;;;;3.53;3.22;;;21.90;60.90;;;;;;5053410;28;20473;-70
2022/09/06 04:02:47;;;;;;;3.45;3.08;;;21.90;61.00;;;;;;5053364;28;20049;-71
2022/09/06 04:05:15;;;;;;;3.42;2.90;;;21.90;61.00;;;;;;5052485;28;20462;-71
2022/09/06 04:07:42;;;;;;;3.30;3.00;;;21.90;61.00;;;;;;5069298;28;20053;-73
2022/09/06 04:10:10;;;;;;;3.60;3.30;;;21.90;61.00;;;;;;5052228;28;20139;-71
2022/09/06 04:12:36;;;;;;;3.63;3.30;;;21.90;61.00;;;;;;5053642;28;20136;-72
2022/09/06 04:15:07;;;;;;;3.30;3.00;;;21.90;61.00;;;;;;5053222;28;20095;-71
2022/09/06 04:17:34;;;;;;;3.30;3.00;;;21.90;61.00;;;;;;5052843;28;20124;-71
2022/09/06 04:20:03;;;;;;;3.17;2.90;;;21.80;60.90;;;;;;5052944;28;20137;-72
2022/09/06 04:22:29;;;;;;;3.60;3.30;;;21.90;61.50;;;;;;5053136;28;20045;-72
2022/09/06 04:24:57;;;;;;;4.57;3.17;;;21.80;61.00;;;;;;5048942;28;20510;-71
2022/09/06 04:27:23;;;;;;;3.40;3.10;;;21.80;61.00;;;;;;5052973;28;20083;-71
2022/09/06 04:29:50;;;;;;;4.88;3.30;;;21.80;60.90;;;;;;5052697;28;20073;-73
2022/09/06 04:32:17;;;;;;;3.97;3.38;;;21.90;61.00;;;;;;5048757;28;20124;-72
2022/09/06 04:34:44;;;;;;;3.45;3.15;;;21.80;60.90;;;;;;5051580;28;20095;-73
2022/09/06 04:37:13;;;;;;;3.60;3.30;;;21.80;61.00;;;;;;5051730;28;20132;-73
2022/09/06 04:39:40;;;;;;;3.75;3.22;;;21.90;61.00;;;;;;5052018;28;20060;-73
2022/09/06 04:42:07;;;;;;;3.83;3.47;;;21.80;61.00;;;;;;5050385;28;20051;-73
2022/09/06 04:44:34;;;;;;;4.18;3.30;;;21.80;61.00;;;;;;5068585;28;20091;-73
2022/09/06 04:47:05;;;;;;;4.38;3.38;;;21.80;61.00;;;;;;5051631;28;20136;-73
2022/09/06 04:49:31;;;;;;;3.70;3.30;;;21.80;61.00;;;;;;5051055;28;20052;-73
2022/09/06 04:51:58;;;;;;;3.75;3.40;;;21.80;61.00;;;;;;5051241;28;20478;-73
2022/09/06 04:54:26;;;;;;;3.70;3.38;;;21.80;61.10;;;;;;5051048;28;20143;-73
2022/09/06 04:56:53;;;;;;;3.20;2.90;;;21.80;61.00;;;;;;5051569;28;20131;-73
2022/09/06 04:59:20;;;;;;;3.70;3.40;;;21.80;61.00;;;;;;5051429;28;20136;-73
2022/09/06 05:01:46;;;;;;;3.60;3.30;;;21.80;61.00;;;;;;5050710;28;20136;-73
2022/09/06 05:04:13;;;;;;;3.53;3.10;;;21.80;61.00;;;;;;5051236;28;20139;-73
2022/09/06 05:06:41;;;;;;;4.15;3.30;;;21.80;61.10;;;;;;5051319;28;20081;-73
2022/09/06 05:09:08;;;;;;;3.42;3.13;;;21.80;61.00;;;;;;5051372;28;20053;-73
2022/09/06 05:11:36;;;;;;;3.50;3.20;;;21.80;61.10;;;;;;5050847;28;20123;-73
2022/09/06 05:14:03;;;;;;;3.88;3.47;;;21.70;61.00;;;;;;5051238;28;20148;-73
2022/09/06 05:16:29;;;;;;;3.67;3.25;;;21.80;61.00;;;;;;5050836;28;20091;-73
2022/09/06 05:18:56;;;;;;;3.55;3.25;;;21.80;61.10;;;;;;5051084;28;20132;-73
2022/09/06 05:21:23;;;;;;;4.00;3.60;;;21.80;61.10;;;;;;5050875;28;20131;-73
2022/09/06 05:23:50;;;;;;;4.53;3.28;;;21.70;61.60;;;;;;5051153;28;20188;-73
2022/09/06 05:26:16;;;;;;;4.32;3.60;;;21.70;61.00;;;;;;5050432;28;20052;-71
2022/09/06 05:28:44;;;;;;;3.80;3.40;;;21.70;61.00;;;;;;5051016;28;20131;-73
2022/09/06 05:31:12;;;;;;;3.63;3.33;;;21.70;61.00;;;;;;5051613;28;20049;-73
2022/09/06 05:33:39;;;;;;;3.78;3.47;;;21.70;61.00;;;;;;5051012;28;20136;-72
2022/09/06 05:36:07;;;;;;;3.70;3.40;;;21.70;61.00;;;;;;5050571;28;20135;-73
2022/09/06 05:38:33;;;;;;;4.15;3.65;;;21.70;61.10;;;;;;5050880;28;20088;-72
2022/09/06 05:41:00;;;;;;;3.97;3.60;;;21.70;61.10;;;;;;5051226;28;20144;-72
2022/09/06 05:43:27;;;;;;;4.10;3.30;;;21.70;61.10;;;;;;5051893;28;20049;-73
2022/09/06 05:45:55;;;;;;;3.90;3.50;;;21.70;61.10;;;;;;5051929;28;20136;-72
2022/09/06 05:48:21;;;;;;;3.67;3.38;;;21.70;61.10;;;;;;5051720;28;20149;-72
2022/09/06 05:50:48;;;;;;;4.22;3.83;;;21.70;61.60;;;;;;5051599;28;20585;-73
2022/09/06 05:53:15;;;;;;;4.22;3.83;;;21.70;61.10;;;;;;5049233;28;20128;-74
2022/09/06 05:55:41;;;;;;;3.95;3.50;;;21.70;61.10;;;;;;5050392;28;20139;-73
2022/09/06 05:58:08;;;;;;;4.45;3.20;;;21.70;61.10;;;;;;5050531;28;20136;-73
2022/09/06 06:00:35;;;;;;;4.68;3.75;;;21.70;61.10;;;;;;5050036;28;20059;-74
2022/09/06 06:03:03;;;;;;;4.15;3.78;;;21.70;61.10;;;;;;5050309;28;20095;-72
2022/09/06 06:05:30;;;;;;;4.55;3.80;;;21.70;61.10;;;;;;5051645;28;20136;-72
2022/09/06 06:07:58;;;;;;;3.92;3.53;;;21.70;61.10;;;;;;5051504;28;20087;-72
2022/09/06 06:10:25;;;;;;;4.15;3.75;;;21.70;61.10;;;;;;5051226;28;20048;-72
2022/09/06 06:12:51;;;;;;;4.38;3.97;;;21.70;61.10;;;;;;5051487;28;20132;-74
2022/09/06 06:15:18;;;;;;;3.92;3.53;;;21.70;61.10;;;;;;5051139;28;20140;-73
2022/09/06 06:17:45;;;;;;;4.10;3.70;;;21.70;61.10;;;;;;5051725;28;20469;-73
2022/09/06 06:20:13;;;;;;;3.83;3.40;;;21.70;61.20;;;;;;5050333;28;20059;-73
2022/09/06 06:22:40;;;;;;;4.00;3.60;;;21.70;61.10;;;;;;5049957;28;20077;-72
2022/09/06 06:25:07;;;;;;;4.28;3.65;;;21.70;61.00;;;;;;5049643;28;20131;-73
2022/09/06 06:27:35;;;;;;;4.72;3.90;;;21.70;61.00;;;;;;5050216;28;20132;-72
2022/09/06 06:30:03;;;;;;;4.45;4.00;;;21.70;61.10;;;;;;5046251;28;20084;-72
2022/09/06 06:32:30;;;;;;;5.15;4.05;;;21.70;61.10;;;;;;5047905;28;20076;-72
2022/09/06 06:34:57;;;;;;;4.05;3.65;;;21.70;61.10;;;;;;5049478;28;20140;-71
2022/09/06 06:37:25;;;;;;;7.07;3.90;;;21.70;61.20;;;;;;5051105;28;20060;-71
2022/09/06 06:39:52;;;;;;;4.75;4.18;;;21.60;61.20;;;;;;5049716;28;20135;-71
2022/09/06 06:42:19;;;;;;;4.50;3.70;;;21.70;61.20;;;;;;5050325;28;20148;-71
2022/09/06 06:44:45;;;;;;;4.40;4.00;;;21.80;61.20;;;;;;5049628;28;20128;-71
2022/09/06 06:47:13;;;;;;;4.53;3.78;;;21.70;61.10;;;;;;5051703;28;20128;-71
2022/09/06 06:49:39;;;;;;;5.40;3.90;;;21.70;61.10;;;;;;5053013;28;20083;-73
2022/09/06 06:52:06;;;;;;;4.57;3.83;;;21.90;61.20;;;;;;5053830;28;20053;-73
2022/09/06 06:54:36;;;;;;;4.93;4.00;;;21.80;61.20;;;;;;5053809;28;20049;-72
2022/09/06 06:57:03;;;;;;;5.68;4.10;;;21.80;61.20;;;;;;5053371;28;20132;-71
2022/09/06 06:59:29;;;;;;;5.18;4.10;;;21.80;61.20;;;;;;5053963;28;20076;-71
2022/09/06 07:01:57;;;;;;;4.75;3.95;;;21.80;61.70;;;;;;5053639;28;20137;-71
2022/09/06 07:04:24;;;;;;;4.57;3.95;;;21.80;61.20;;;;;;5053196;28;20080;-71
2022/09/06 07:06:51;;;;;;;4.30;3.90;;;21.80;61.20;;;;;;5053575;28;20135;-71
2022/09/06 07:09:18;;;;;;;4.65;4.25;;;21.90;61.20;;;;;;5053609;28;20076;-71
2022/09/06 07:11:47;;;;;;;5.18;3.95;;;21.80;61.20;;;;;;5053584;28;20136;-71
2022/09/06 07:14:14;;;;;;;7.03;4.38;;;21.80;61.30;;;;;;5054666;28;20057;-71
2022/09/06 07:16:41;;;;;;;4.47;3.78;;;21.80;61.30;;;;;;5054619;28;20135;-71
2022/09/06 07:19:07;;;;;;;5.78;4.28;;;21.80;61.30;;;;;;5053350;28;20503;-71
2022/09/06 07:21:34;;;;;;;4.88;3.70;;;21.80;61.30;;;;;;5053047;28;20133;-71
2022/09/06 07:24:02;;;;;;;7.25;4.38;;;21.80;61.30;;;;;;5053587;28;20135;-71
2022/09/06 07:26:29;;;;;;;5.03;4.03;;;21.80;61.40;;;;;;5053511;28;20511;-71
2022/09/06 07:28:59;;;;;;;5.95;4.35;;;21.80;61.40;;;;;;5053526;28;20155;-71
2022/09/06 07:31:25;;;;;;;7.18;4.50;;;21.80;61.40;;;;;;5052921;28;20465;-71
2022/09/06 07:33:52;;;;;;;6.35;4.38;;;21.80;61.40;;;;;;5052723;28;20099;-72
2022/09/06 07:36:19;;;;;;;5.50;4.72;;;21.80;62.10;;;;;;5053622;28;20482;-72
2022/09/06 07:38:48;;;;;;;7.05;4.22;;;21.80;61.50;;;;;;5053271;28;20136;-72
2022/09/06 07:41:16;;;;;;;6.10;4.35;;;21.80;61.50;;;;;;5052971;28;20144;-72
2022/09/06 07:43:42;;;;;;;6.85;4.78;;;21.80;61.50;;;;;;5054085;28;20138;-72
2022/09/06 07:46:11;;;;;;;5.80;4.68;;;21.80;61.50;;;;;;5053945;28;20127;-72
2022/09/06 07:48:40;;;;;;;5.55;4.63;;;21.90;61.60;;;;;;5054154;28;20049;-71
2022/09/06 07:51:07;;;;;;;6.53;4.20;;;21.90;61.60;;;;;;5053072;28;20075;-71
2022/09/06 07:53:34;;;;;;;6.88;4.38;;;21.90;61.60;;;;;;5049742;28;20089;-71
2022/09/06 07:56:01;;;;;;;5.25;4.75;;;21.80;61.60;;;;;;5051005;28;20045;-71
2022/09/06 07:58:29;;;;;;;4.85;4.38;;;21.90;61.60;;;;;;5052595;28;20112;-71
2022/09/06 08:01:15;;;;;;;6.50;4.88;;;21.90;61.70;;;;;;5053590;28;20053;-71
2022/09/06 08:03:41;;;;;;;6.95;4.68;;;21.90;61.60;;;;;;5052098;28;20128;-73
2022/09/06 08:06:08;;;;;;;5.25;4.18;;;21.90;61.70;;;;;;5052148;28;20541;-73
2022/09/06 08:08:35;;;;;;;5.68;3.97;;;21.90;61.70;;;;;;5052589;28;20136;-73
2022/09/06 08:11:01;;;;;;;6.72;4.03;;;22.00;61.50;;;;;;5053100;28;20128;-73
2022/09/06 08:13:28;;;;;;;4.40;4.00;;;22.10;61.50;;;;;;5052563;28;20156;-73
2022/09/06 08:15:58;;;;;;;4.95;3.70;;;22.20;61.40;;;;;;5052328;28;20151;-71
2022/09/06 08:18:26;;;;;;;3.92;3.50;;;22.20;61.20;;;;;;5052217;28;20153;-73
2022/09/06 08:20:53;;;;;;;5.57;3.40;;;22.50;61.20;;;;;;5051655;28;20553;-73
2022/09/06 08:23:20;;;;;;;4.03;3.63;;;22.50;61.10;;;;;;5051732;28;20547;-73
2022/09/06 08:25:56;;;;;;;5.40;4.00;;;22.60;61.00;;;;;;5052201;28;20136;-73
2022/09/06 08:28:22;;;;;;;4.20;3.50;;;22.90;61.10;;;;;;5051957;28;20060;-73
2022/09/06 08:30:49;;;;;;;5.75;3.70;;;22.90;60.90;;;;;;5051899;28;20620;-72
2022/09/06 08:33:19;;;;;;;6.45;4.13;;;23.00;60.90;;;;;;5050858;28;20141;-72
2022/09/06 08:35:56;;;;;;;6.80;4.13;;;23.00;60.80;;;;;;5051381;28;20573;-73
2022/09/06 08:38:23;;;;;;;5.68;3.85;;;23.10;60.70;;;;;;5050678;28;20132;-73
2022/09/06 08:40:50;;;;;;;4.93;4.18;;;23.10;60.60;;;;;;5051766;28;20055;-73
2022/09/06 08:43:18;;;;;;;4.85;4.15;;;23.10;60.70;;;;;;5051589;28;20053;-73
2022/09/06 08:45:45;;;;;;;5.32;4.13;;;23.00;60.60;;;;;;5051504;28;20474;-73
2022/09/06 08:48:12;;;;;;;4.60;3.90;;;23.00;60.60;;;;;;5052636;28;20446;-72
2022/09/06 08:50:39;;;;;;;5.60;4.75;;;23.10;60.60;;;;;;5050978;28;20061;-73
2022/09/06 08:53:08;;;;;;;4.32;3.92;;;23.10;60.60;;;;;;5050792;28;20466;-72
2022/09/06 08:55:36;;;;;;;6.80;4.45;;;23.10;60.70;;;;;;5051306;28;20144;-73
2022/09/06 08:58:13;;;;;;;6.20;4.15;;;23.00;60.90;;;;;;5051323;28;20060;-72
2022/09/06 09:00:40;;;;;;;5.53;4.40;;;23.10;61.20;;;;;;5050703;28;20056;-72
2022/09/06 09:03:09;;;;;;;6.60;4.50;;;23.10;61.50;;;;;;5051253;28;20052;-72
2022/09/06 09:05:37;;;;;;;7.75;4.80;;;23.00;61.70;;;;;;5051494;28;20067;-72
2022/09/06 09:08:14;;;;;;;4.80;4.20;;;23.00;61.90;;;;;;5050969;28;20067;-72
2022/09/06 09:10:42;;;;;;;6.65;4.78;;;23.10;61.90;;;;;;5049660;28;20135;-72
2022/09/06 09:13:13;;;;;;;9.35;4.53;;;23.00;61.90;;;;;;5050967;28;20045;-72
2022/09/06 09:15:40;;;;;;;4.60;4.00;;;23.00;61.90;;;;;;5051139;28;20159;-72
2022/09/06 09:18:07;;;;;;;4.60;4.13;;;23.00;61.80;;;;;;5048334;28;20076;-72
2022/09/06 09:20:34;;;;;;;6.93;4.53;;;23.00;61.80;;;;;;5050754;28;20056;-72
2022/09/06 09:23:01;;;;;;;7.00;4.28;;;23.00;61.70;;;;;;5050505;28;20051;-72
2022/09/06 09:25:30;;;;;;;5.90;4.57;;;23.00;61.60;;;;;;5050546;28;20131;-72
2022/09/06 09:27:57;;;;;;;5.72;4.53;;;23.00;61.60;;;;;;5066480;28;20410;-72
2022/09/06 09:30:24;;;;;;;7.07;4.88;;;23.00;61.60;;;;;;5050453;28;20053;-72
2022/09/06 09:32:51;;;;;;;20.42;5.20;;;22.90;61.50;;;;;;5050751;28;20455;-72
2022/09/06 09:35:21;;;;;;;6.32;4.75;;;23.00;61.60;;;;;;5050211;28;20084;-72
2022/09/06 09:37:48;;;;;;;6.05;5.00;;;23.00;61.50;;;;;;5048083;28;20055;-71
2022/09/06 09:40:16;;;;;;;5.82;4.13;;;23.00;61.40;;;;;;5050105;28;20063;-72
2022/09/06 09:42:44;;;;;;;6.03;5.10;;;23.00;61.30;;;;;;5050524;28;20049;-73
2022/09/06 09:45:23;;;;;;;6.85;4.45;;;23.00;61.30;;;;;;5050121;28;20128;-74
2022/09/06 09:47:50;;;;;;;5.70;4.95;;;23.00;61.30;;;;;;5048799;28;20136;-73
2022/09/06 09:50:25;;;;;;;6.43;4.78;;;23.00;61.40;;;;;;5050348;28;20422;-74
2022/09/06 09:52:52;;;;;;;10.40;5.45;;;23.00;61.30;;;;;;5050555;28;20056;-74
2022/09/06 09:55:22;;;;;;;10.98;5.55;;;23.00;61.40;;;;;;5050732;28;20077;-73
2022/09/06 09:57:51;;;;;;;5.70;5.10;;;23.00;61.40;;;;;;5050814;28;20140;-73
2022/09/06 10:00:32;;;;;;;11.20;5.40;;;23.00;61.50;;;;;;5049436;28;20527;-73
2022/09/06 10:02:59;;;;;;;5.88;5.00;;;23.10;61.40;;;;;;5048303;28;20052;-73
2022/09/06 10:05:26;;;;;;;5.57;4.80;;;23.10;61.20;;;;;;5050578;28;20061;-73
2022/09/06 10:07:54;;;;;;;7.35;4.93;;;23.10;61.10;;;;;;5050627;28;20063;-73
2022/09/06 10:10:21;;;;;;;5.93;5.10;;;23.20;61.00;;;;;;5050311;28;20068;-73
2022/09/06 10:12:50;;;;;;;6.18;4.68;;;23.30;60.90;;;;;;5050741;28;20081;-73
2022/09/06 10:15:32;;;;;;;21.92;11.32;;;23.30;60.80;;;;;;5066423;28;20083;-72
2022/09/06 10:17:59;;;;;;;25.20;12.52;;;23.30;60.80;;;;;;5033759;28;20132;-73
2022/09/06 10:20:32;;;;;;;26.75;14.13;;;23.50;61.10;;;;;;5051290;28;20577;-73
2022/09/06 10:23:01;;;;;;;31.95;15.35;;;23.40;61.10;;;;;;5036238;28;20136;-73
2022/09/06 10:25:41;;;;;;;80.70;30.55;;;23.40;60.90;;;;;;5055346;28;20080;-72
2022/09/06 10:28:31;;;;;;;53.50;21.92;;;23.50;60.80;;;;;;5054657;28;20484;-73
2022/09/06 10:31:25;;;;;;;34.97;16.27;;;23.50;60.80;;;;;;5053965;28;20057;-73
2022/09/06 10:33:59;;;;;;;53.28;22.92;;;23.50;60.70;;;;;;5054368;28;20131;-73
2022/09/06 10:36:28;;;;;;;41.72;18.80;;;23.60;60.60;;;;;;5055382;28;20565;-72
2022/09/06 10:38:56;;;;;;;35.15;17.42;;;23.50;60.60;;;;;;5037686;28;20053;-71
2022/09/06 10:41:32;;;;;;;32.95;16.13;;;23.50;60.50;;;;;;5051410;28;20087;-73
2022/09/06 10:44:09;;;;;;;36.38;15.48;;;23.60;60.70;;;;;;5054235;28;20056;-73
2022/09/06 10:46:36;;;;;;;31.77;13.70;;;23.60;60.60;;;;;;5053514;28;20132;-73
2022/09/06 10:49:03;;;;;;;33.03;14.88;;;23.60;60.50;;;;;;4994043;28;20053;-73
2022/09/06 10:51:34;;;;;;;27.33;13.20;;;23.60;60.60;;;;;;5053636;28;20091;-73
2022/09/06 10:54:03;;;;;;;25.83;12.23;;;23.60;60.70;;;;;;5037489;28;20494;-73
2022/09/06 10:56:34;;;;;;;26.15;12.48;;;23.70;60.70;;;;;;5054014;28;20059;-72
2022/09/06 10:59:05;;;;;;;24.70;10.95;;;23.70;60.80;;;;;;5053589;28;20552;-73
2022/09/06 11:01:34;;;;;;;24.20;11.50;;;23.70;61.10;;;;;;5053332;28;20140;-73
2022/09/06 11:04:00;;;;;;;24.17;10.70;;;23.70;61.50;;;;;;5053382;28;20522;-72
2022/09/06 11:06:29;;;;;;;20.13;10.73;;;23.70;61.50;;;;;;5055032;28;20071;-73
2022/09/06 11:08:59;;;;;;;19.48;10.10;;;23.70;61.60;;;;;;5054605;28;20501;-73
2022/09/06 11:11:34;;;;;;;16.88;9.60;;;23.70;61.30;;;;;;5053603;28;20060;-72
2022/09/06 11:14:03;;;;;;;21.35;9.95;;;23.80;61.10;;;;;;5053359;28;20478;-73
2022/09/06 11:16:31;;;;;;;18.23;9.48;;;23.80;60.90;;;;;;5052252;28;20537;-72
2022/09/06 11:18:59;;;;;;;15.45;9.10;;;23.80;60.80;;;;;;5053056;28;20048;-72
2022/09/06 11:21:39;;;;;;;20.83;8.93;;;23.80;60.80;;;;;;5050498;28;20128;-72
2022/09/06 11:24:11;;;;;;;14.85;8.93;;;23.90;60.60;;;;;;5050715;28;20551;-73
2022/09/06 11:26:42;;;;;;;18.27;9.23;;;23.90;60.60;;;;;;5052974;28;20456;-72
2022/09/06 11:29:16;;;;;;;15.55;8.50;;;23.90;60.50;;;;;;5051175;28;20131;-72
2022/09/06 11:31:51;;;;;;;15.55;8.60;;;23.90;60.50;;;;;;5053017;28;20131;-71
2022/09/06 11:34:20;;;;;;;17.00;8.55;;;23.90;60.50;;;;;;5052543;28;20049;-73
2022/09/06 11:36:48;;;;;;;13.95;7.68;;;23.90;60.50;;;;;;5036306;28;20063;-72
2022/09/06 11:39:15;;;;;;;13.15;7.78;;;23.90;60.40;;;;;;5069740;28;20053;-73
2022/09/06 11:41:42;;;;;;;16.45;7.70;;;23.90;60.40;;;;;;5051735;28;20144;-72
2022/09/06 11:44:10;;;;;;;13.32;7.88;;;23.90;60.40;;;;;;5054134;28;20417;-71
2022/09/06 11:46:57;;;;;;;11.65;7.57;;;24.00;60.40;;;;;;5052970;28;20553;-72
2022/09/06 11:49:38;;;;;;;11.75;7.38;;;24.00;60.30;;;;;;5052960;28;20414;-73
2022/09/06 11:52:58;;;;;;;10.13;6.90;;;23.90;60.20;;;;;;5052661;28;20500;-71
2022/09/06 11:55:30;;;;;;;10.73;7.00;;;24.00;60.30;;;;;;5052793;28;20057;-73
2022/09/06 11:57:58;;;;;;;10.77;6.60;;;24.00;60.30;;;;;;5053039;28;20139;-73
2022/09/06 12:00:26;;;;;;;11.70;7.07;;;24.00;60.20;;;;;;5052471;28;20087;-73
2022/09/06 12:02:53;;;;;;;12.50;7.05;;;24.00;60.20;;;;;;5052658;28;20132;-73
2022/09/06 12:05:25;;;;;;;11.90;7.10;;;24.00;60.10;;;;;;5051799;28;20155;-73
2022/09/06 12:08:12;;;;;;;8.65;6.53;;;24.10;60.10;;;;;;5050810;28;20067;-73
2022/09/06 12:10:48;;;;;;;9.05;6.25;;;24.20;60.20;;;;;;5051603;28;20064;-73
2022/09/06 12:13:51;;;;;;;9.85;6.35;;;24.00;60.00;;;;;;5052662;28;20053;-74
2022/09/06 12:16:19;;;;;;;9.32;6.05;;;24.10;60.10;;;;;;4995395;28;20057;-72
2022/09/06 12:19:01;;;;;;;9.75;6.05;;;24.10;60.10;;;;;;4994801;28;20255;-72
2022/09/06 12:21:37;;;;;;;9.18;6.15;;;24.10;60.00;;;;;;5026184;28;20056;-72
2022/09/06 12:24:04;;;;;;;9.60;6.00;;;24.10;60.00;;;;;;5052384;28;20127;-73
2022/09/06 12:26:49;;;;;;;8.25;5.53;;;24.10;60.00;;;;;;5052083;28;20081;-73
2022/09/06 12:29:16;;;;;;;11.90;6.40;;;24.10;59.90;;;;;;5052264;28;20577;-73
2022/09/06 12:31:45;;;;;;;8.65;5.95;;;24.10;59.90;;;;;;5051794;28;20048;-73
2022/09/06 12:34:14;;;;;;;8.85;5.68;;;24.10;59.90;;;;;;5052281;28;20124;-73
2022/09/06 12:36:55;;;;;;;8.93;5.95;;;24.10;59.80;;;;;;5051480;28;20469;-73
2022/09/06 12:39:22;;;;;;;7.90;5.80;;;24.10;59.80;;;;;;5052161;28;20399;-73
2022/09/06 12:41:49;;;;;;;8.55;5.38;;;24.10;59.90;;;;;;5052706;28;20083;-73
2022/09/06 12:44:17;;;;;;;8.27;5.43;;;24.10;59.80;;;;;;5051554;28;20055;-73
2022/09/06 12:46:47;;;;;;;8.85;5.80;;;24.10;59.80;;;;;;5051354;28;20541;-73
2022/09/06 12:49:15;;;;;;;8.18;5.25;;;24.10;59.80;;;;;;5051954;28;20130;-73
2022/09/06 12:51:42;;;;;;;7.20;5.07;;;24.10;59.80;;;;;;5051385;28;20063;-73
2022/09/06 12:54:19;;;;;;;7.50;5.50;;;24.10;59.80;;;;;;5052758;28;20462;-72
2022/09/06 12:56:45;;;;;;;7.78;5.53;;;24.10;59.70;;;;;;5051780;28;20053;-73
2022/09/06 12:59:18;;;;;;;7.68;5.15;;;24.10;59.80;;;;;;5051591;28;20053;-74